Time;durP1;ratioP1;P1;durP2;ratioP2;P2;SDS_P1;SDS_P2;PMS_P1;PMS_P2;Temp;Humidity;BMP_temperature;BMP_pressure;BME280_temperature;BME280_humidity;BME280_pressure;Samples;Min_cycle;Max_cycle;Signal;HPM_P1;HPM_P2
2023/03/11 00:01:12;;;;;;;5.60;2.53;;;4.70;80.80;;;;;;5014444;28;20060;-48
2023/03/11 00:03:42;;;;;;;4.28;2.17;;;4.70;80.70;;;;;;5031668;28;20498;-50
2023/03/11 00:06:09;;;;;;;4.70;1.73;;;4.70;80.70;;;;;;5021529;28;20038;-51
2023/03/11 00:08:35;;;;;;;4.65;1.65;;;4.70;80.60;;;;;;5009246;28;20514;-48
2023/03/11 00:11:02;;;;;;;7.45;2.05;;;4.70;80.60;;;;;;5022237;28;20402;-51
2023/03/11 00:13:31;;;;;;;2.50;1.65;;;4.70;80.50;;;;;;5024760;28;20041;-50
2023/03/11 00:16:02;;;;;;;5.68;2.00;;;4.70;80.40;;;;;;5019666;28;20099;-51
2023/03/11 00:18:31;;;;;;;9.43;2.63;;;4.70;80.40;;;;;;5007160;28;20044;-50
2023/03/11 00:20:59;;;;;;;3.45;1.38;;;4.70;80.40;;;;;;5014978;28;20053;-48
2023/03/11 00:23:29;;;;;;;7.45;2.33;;;4.80;80.40;;;;;;5020480;28;20503;-53
2023/03/11 00:26:00;;;;;;;6.70;1.67;;;4.70;80.40;;;;;;5029600;28;20065;-49
2023/03/11 00:28:27;;;;;;;4.73;1.80;;;4.80;80.70;;;;;;5026521;28;20046;-50
2023/03/11 00:30:54;;;;;;;5.78;1.77;;;4.80;80.40;;;;;;4991515;28;20045;-51
2023/03/11 00:33:25;;;;;;;6.45;1.63;;;4.80;80.30;;;;;;5019024;28;20483;-52
2023/03/11 00:35:52;;;;;;;7.15;1.45;;;4.80;80.10;;;;;;5008534;28;20486;-50
2023/03/11 00:38:22;;;;;;;6.03;1.70;;;4.70;80.10;;;;;;5025396;28;20038;-50
2023/03/11 00:40:50;;;;;;;7.28;1.98;;;4.80;80.00;;;;;;5007210;28;20042;-50
2023/03/11 00:43:17;;;;;;;6.43;1.58;;;4.80;79.90;;;;;;5012603;28;20049;-52
2023/03/11 00:45:46;;;;;;;7.78;1.48;;;4.70;79.80;;;;;;5021375;28;20053;-49
2023/03/11 00:48:14;;;;;;;7.80;1.75;;;4.70;79.60;;;;;;5021508;28;20037;-50
2023/03/11 00:50:44;;;;;;;6.72;1.60;;;4.70;79.50;;;;;;5010593;28;20042;-50
2023/03/11 00:53:11;;;;;;;6.93;1.50;;;4.70;79.30;;;;;;5012182;28;20049;-51
2023/03/11 00:55:39;;;;;;;4.85;1.38;;;4.70;79.10;;;;;;5011668;28;20053;-51
2023/03/11 00:58:19;;;;;;;6.25;1.88;;;4.60;78.80;;;;;;5012276;28;20673;-50
2023/03/11 01:00:53;;;;;;;5.43;1.85;;;4.60;78.70;;;;;;4991164;28;20045;-49
2023/03/11 01:03:22;;;;;;;5.53;1.50;;;4.50;78.50;;;;;;5006126;28;20040;-49
2023/03/11 01:05:48;;;;;;;5.28;2.28;;;4.50;78.40;;;;;;5008624;28;20494;-52
2023/03/11 01:08:17;;;;;;;5.82;1.75;;;4.40;78.40;;;;;;4989928;28;20663;-51
2023/03/11 01:10:46;;;;;;;3.63;2.05;;;4.40;78.40;;;;;;5003824;28;20045;-53
2023/03/11 01:13:15;;;;;;;6.90;1.58;;;4.30;78.40;;;;;;4998645;28;20038;-50
2023/03/11 01:15:44;;;;;;;7.35;1.15;;;4.30;78.50;;;;;;5014090;28;20038;-50
2023/03/11 01:18:11;;;;;;;3.50;1.15;;;4.30;78.70;;;;;;4993607;28;20042;-51
2023/03/11 01:20:37;;;;;;;3.25;1.40;;;4.20;78.80;;;;;;5022827;28;20728;-51
2023/03/11 01:23:06;;;;;;;3.08;1.45;;;4.20;78.80;;;;;;5014365;28;20042;-53
2023/03/11 01:25:35;;;;;;;12.60;1.90;;;4.10;78.70;;;;;;5011591;28;20037;-48
2023/03/11 01:28:07;;;;;;;9.63;1.45;;;4.10;78.70;;;;;;5029611;28;20048;-51
2023/03/11 01:30:41;;;;;;;2.38;1.23;;;4.10;78.60;;;;;;5007727;28;20568;-50
2023/03/11 01:33:13;;;;;;;3.60;1.30;;;4.00;78.50;;;;;;5027997;28;20037;-53
2023/03/11 01:35:41;;;;;;;7.28;1.85;;;4.00;78.40;;;;;;5011503;28;20555;-51
2023/03/11 01:38:10;;;;;;;4.45;1.60;;;4.00;78.50;;;;;;5008647;28;20422;-49
2023/03/11 01:40:48;;;;;;;11.80;1.65;;;4.00;78.60;;;;;;5015221;28;20050;-52
2023/03/11 01:43:35;;;;;;;7.55;1.75;;;3.90;78.50;;;;;;5008714;28;20049;-49
2023/03/11 01:46:11;;;;;;;4.85;1.42;;;3.90;78.40;;;;;;5008718;28;20080;-53
2023/03/11 01:48:41;;;;;;;5.13;1.52;;;3.90;78.50;;;;;;4995195;28;20045;-49
2023/03/11 01:51:16;;;;;;;3.72;2.03;;;3.80;78.50;;;;;;4997143;28;20592;-48
2023/03/11 01:53:43;;;;;;;9.43;1.10;;;3.80;78.50;;;;;;4992332;28;20184;-49
2023/03/11 01:56:13;;;;;;;5.88;1.25;;;3.80;79.20;;;;;;5017353;28;20046;-50
2023/03/11 01:58:50;;;;;;;3.08;1.10;;;3.70;78.60;;;;;;5002074;28;20061;-49
2023/03/11 02:01:27;;;;;;;5.03;1.48;;;3.70;78.60;;;;;;5006275;28;20525;-49
2023/03/11 02:03:55;;;;;;;3.45;1.25;;;3.70;78.60;;;;;;5013910;28;20558;-51
2023/03/11 02:06:23;;;;;;;3.80;1.45;;;3.70;78.70;;;;;;4998483;28;20038;-52
2023/03/11 02:08:50;;;;;;;6.75;1.58;;;3.70;78.70;;;;;;4989052;28;20520;-49
2023/03/11 02:11:26;;;;;;;6.03;1.55;;;3.60;78.70;;;;;;5007340;28;20049;-52
2023/03/11 02:14:02;;;;;;;5.68;1.42;;;3.70;78.80;;;;;;5012048;28;20049;-47
2023/03/11 02:16:36;;;;;;;6.35;1.65;;;3.60;78.70;;;;;;5011139;28;20684;-49
2023/03/11 02:19:18;;;;;;;8.25;2.47;;;3.60;78.80;;;;;;5021219;28;20129;-48
2023/03/11 02:21:52;;;;;;;6.85;1.73;;;3.60;78.80;;;;;;4990964;28;20425;-46
2023/03/11 02:24:58;;;;;;;5.80;1.55;;;3.60;78.80;;;;;;5026137;28;20049;-49
2023/03/11 02:27:32;;;;;;;3.72;1.80;;;3.60;78.70;;;;;;5016026;28;20038;-52
2023/03/11 02:30:03;;;;;;;6.30;1.38;;;3.50;78.70;;;;;;5011421;28;20149;-49
2023/03/11 02:32:33;;;;;;;3.13;1.48;;;3.30;78.70;;;;;;5007877;28;20463;-50
2023/03/11 02:35:00;;;;;;;5.18;1.60;;;3.50;78.80;;;;;;5014896;28;20394;-49
2023/03/11 02:37:29;;;;;;;5.32;1.30;;;3.50;78.80;;;;;;5013246;28;20041;-51
2023/03/11 02:40:24;;;;;;;6.43;1.70;;;3.50;78.90;;;;;;5009878;28;20141;-51
2023/03/11 02:43:11;;;;;;;7.15;2.17;;;3.50;78.90;;;;;;5010460;28;20083;-50
2023/03/11 02:45:41;;;;;;;2.00;1.23;;;3.50;78.80;;;;;;5012710;28;20046;-48
2023/03/11 02:48:15;;;;;;;7.27;1.80;;;3.50;78.80;;;;;;5012046;28;20069;-49
2023/03/11 02:50:47;;;;;;;2.72;1.60;;;3.50;78.80;;;;;;5007869;28;20301;-49
2023/03/11 02:53:19;;;;;;;3.72;1.40;;;3.50;78.80;;;;;;5016261;28;20510;-51
2023/03/11 02:55:46;;;;;;;15.45;2.00;;;3.50;78.80;;;;;;5013880;28;20045;-53
2023/03/11 02:58:17;;;;;;;3.83;1.20;;;3.50;78.80;;;;;;5013123;28;20124;-51
2023/03/11 03:00:47;;;;;;;8.23;1.77;;;3.50;78.90;;;;;;4988901;28;20048;-52
2023/03/11 03:03:14;;;;;;;7.22;1.52;;;3.50;79.00;;;;;;5003390;28;20470;-49
2023/03/11 03:05:48;;;;;;;4.57;1.23;;;3.50;79.00;;;;;;5017214;28;20479;-53
2023/03/11 03:08:19;;;;;;;7.53;1.60;;;3.50;78.90;;;;;;5012897;28;20048;-48
2023/03/11 03:10:47;;;;;;;8.75;1.90;;;3.40;78.80;;;;;;5011997;28;20720;-48
2023/03/11 03:13:16;;;;;;;5.53;1.38;;;3.50;78.80;;;;;;5003898;28;20124;-48
2023/03/11 03:15:47;;;;;;;4.88;1.77;;;3.40;78.80;;;;;;5013997;28;20110;-52
2023/03/11 03:18:14;;;;;;;8.48;1.67;;;3.40;78.70;;;;;;4991036;28;20050;-49
2023/03/11 03:20:41;;;;;;;3.40;1.52;;;3.40;78.70;;;;;;5000968;28;20467;-51
2023/03/11 03:23:15;;;;;;;6.75;1.95;;;3.40;78.50;;;;;;5012139;28;20045;-49
2023/03/11 03:25:45;;;;;;;4.53;1.60;;;3.40;78.40;;;;;;5014011;28;20038;-52
2023/03/11 03:28:18;;;;;;;6.10;2.25;;;3.40;78.30;;;;;;5010699;28;20474;-47
2023/03/11 03:30:47;;;;;;;6.07;1.45;;;3.40;78.20;;;;;;5011029;28;20065;-49
2023/03/11 03:33:14;;;;;;;6.78;1.80;;;3.30;78.20;;;;;;5002677;28;20556;-50
2023/03/11 03:35:46;;;;;;;4.43;2.40;;;3.30;78.20;;;;;;5010382;28;20045;-52
2023/03/11 03:38:20;;;;;;;4.55;1.98;;;3.30;78.20;;;;;;4990870;28;20046;-47
2023/03/11 03:40:57;;;;;;;9.95;1.63;;;3.20;78.20;;;;;;5008210;28;20037;-49
2023/03/11 03:43:27;;;;;;;3.90;1.45;;;3.20;78.20;;;;;;5012403;28;20075;-49
2023/03/11 03:46:01;;;;;;;;;;;3.20;78.40;;;;;;4998995;28;20141;-49
2023/03/11 03:48:34;;;;;;;8.20;1.67;;;3.20;78.70;;;;;;5011130;28;19932;-51
2023/03/11 03:51:10;;;;;;;5.40;1.90;;;3.20;78.40;;;;;;5000513;28;20053;-49
2023/03/11 03:53:47;;;;;;;4.38;1.67;;;3.20;78.50;;;;;;5000725;28;20080;-52
2023/03/11 03:56:17;;;;;;;9.65;1.90;;;3.20;78.60;;;;;;5029929;28;20049;-48
2023/03/11 03:58:44;;;;;;;3.50;1.52;;;3.20;78.60;;;;;;4999498;28;20403;-49
2023/03/11 04:01:11;;;;;;;5.22;1.98;;;3.30;78.60;;;;;;5007253;28;20692;-51
2023/03/11 04:03:41;;;;;;;7.60;2.30;;;3.20;78.50;;;;;;5012751;28;20041;-49
2023/03/11 04:06:21;;;;;;;7.63;1.90;;;3.20;78.40;;;;;;5002690;28;20523;-48
2023/03/11 04:08:53;;;;;;;6.05;1.85;;;3.20;78.30;;;;;;4992546;28;20123;-50
2023/03/11 04:11:27;;;;;;;6.75;1.70;;;3.10;78.40;;;;;;5004004;28;20099;-47
2023/03/11 04:14:01;;;;;;;6.90;2.42;;;3.10;78.50;;;;;;5010672;28;20037;-49
2023/03/11 04:16:28;;;;;;;6.82;1.80;;;3.20;78.40;;;;;;5017157;28;20041;-51
2023/03/11 04:19:07;;;;;;;7.38;1.85;;;3.20;78.50;;;;;;5012650;28;20494;-49
2023/03/11 04:21:39;;;;;;;6.07;1.60;;;3.20;78.40;;;;;;4996706;28;20434;-48
2023/03/11 04:24:06;;;;;;;4.97;2.00;;;3.20;78.40;;;;;;5009123;28;20053;-51
2023/03/11 04:26:35;;;;;;;5.43;1.85;;;3.20;78.40;;;;;;5005992;28;20434;-48
2023/03/11 04:29:04;;;;;;;4.15;1.77;;;3.20;78.40;;;;;;5000936;28;20232;-50
2023/03/11 04:31:37;;;;;;;8.18;2.10;;;3.20;78.40;;;;;;4992718;28;20109;-47
2023/03/11 04:34:16;;;;;;;6.10;1.92;;;3.20;79.00;;;;;;5019208;28;20041;-49
2023/03/11 04:36:52;;;;;;;8.63;1.95;;;3.20;78.40;;;;;;5003715;28;20112;-46
2023/03/11 04:39:21;;;;;;;3.60;2.13;;;3.20;78.30;;;;;;5003114;28;20046;-48
2023/03/11 04:41:49;;;;;;;6.47;2.08;;;3.20;78.40;;;;;;4998610;28;20448;-53
2023/03/11 04:44:25;;;;;;;7.90;2.28;;;3.20;78.40;;;;;;5011792;28;20045;-51
2023/03/11 04:46:56;;;;;;;6.28;2.20;;;3.20;78.50;;;;;;4996681;28;20065;-49
2023/03/11 04:49:28;;;;;;;8.95;2.42;;;3.30;78.50;;;;;;5015350;28;20049;-46
2023/03/11 04:51:55;;;;;;;10.82;2.90;;;3.30;78.50;;;;;;5010644;28;20052;-49
2023/03/11 04:54:23;;;;;;;4.53;2.85;;;3.30;78.40;;;;;;5020919;28;20049;-51
2023/03/11 04:56:52;;;;;;;6.57;2.38;;;3.30;78.20;;;;;;5012620;28;20073;-51
2023/03/11 04:59:26;;;;;;;4.95;2.53;;;3.30;78.20;;;;;;4994445;28;20582;-50
2023/03/11 05:01:52;;;;;;;4.68;2.28;;;3.30;78.10;;;;;;5027462;28;20037;-52
2023/03/11 05:04:24;;;;;;;10.45;3.05;;;3.30;78.70;;;;;;5007943;28;20069;-50
2023/03/11 05:06:51;;;;;;;7.25;2.55;;;3.30;78.00;;;;;;5018213;28;20046;-50
2023/03/11 05:09:18;;;;;;;7.18;2.35;;;3.30;77.90;;;;;;5014067;28;20414;-50
2023/03/11 05:11:47;;;;;;;5.25;2.55;;;3.30;77.90;;;;;;5028134;28;20065;-49
2023/03/11 05:14:21;;;;;;;8.93;3.03;;;3.30;78.00;;;;;;5010173;28;20046;-50
2023/03/11 05:16:50;;;;;;;4.63;2.30;;;3.30;77.90;;;;;;5007167;28;20038;-47
2023/03/11 05:19:33;;;;;;;8.43;3.28;;;3.30;77.90;;;;;;5002516;28;20099;-48
2023/03/11 05:22:09;;;;;;;5.18;2.67;;;3.30;77.90;;;;;;4987326;28;20073;-50
2023/03/11 05:24:40;;;;;;;6.18;3.10;;;3.30;77.90;;;;;;5000912;28;20529;-49
2023/03/11 05:27:07;;;;;;;5.45;2.60;;;3.30;77.90;;;;;;5000267;28;20049;-49
2023/03/11 05:29:38;;;;;;;5.80;2.78;;;3.30;77.80;;;;;;4994811;28;20045;-53
2023/03/11 05:32:08;;;;;;;8.13;3.38;;;3.30;77.70;;;;;;5002205;28;20136;-48
2023/03/11 05:34:36;;;;;;;5.00;2.25;;;3.30;77.70;;;;;;5007341;28;20079;-47
2023/03/11 05:37:02;;;;;;;8.02;3.20;;;3.30;77.70;;;;;;5011589;28;20693;-50
2023/03/11 05:39:30;;;;;;;8.52;3.30;;;3.30;77.60;;;;;;5025365;28;20091;-48
2023/03/11 05:41:59;;;;;;;7.22;3.05;;;3.20;77.40;;;;;;5008207;28;20033;-51
2023/03/11 05:44:30;;;;;;;10.05;3.88;;;3.20;77.30;;;;;;5022926;28;20049;-51
2023/03/11 05:47:00;;;;;;;10.23;3.85;;;3.20;77.20;;;;;;5012489;28;20041;-50
2023/03/11 05:49:30;;;;;;;8.00;3.70;;;3.20;77.30;;;;;;5033607;28;20037;-49
2023/03/11 05:52:00;;;;;;;7.97;3.83;;;3.20;77.30;;;;;;4994832;28;20050;-47
2023/03/11 05:54:29;;;;;;;7.53;4.13;;;3.10;77.30;;;;;;5011709;28;20041;-51
2023/03/11 05:56:56;;;;;;;8.05;3.58;;;3.30;77.40;;;;;;5012990;28;20064;-48
2023/03/11 05:59:27;;;;;;;6.88;3.28;;;3.10;77.30;;;;;;5028874;28;20112;-52
2023/03/11 06:01:58;;;;;;;6.57;3.28;;;3.10;77.40;;;;;;5007636;28;20038;-53
2023/03/11 06:04:28;;;;;;;8.18;3.67;;;3.10;77.40;;;;;;4997280;28;20041;-51
2023/03/11 06:07:01;;;;;;;8.05;3.47;;;3.10;77.40;;;;;;5030147;28;20064;-52
2023/03/11 06:09:34;;;;;;;8.38;3.47;;;3.10;77.30;;;;;;5004922;28;20049;-48
2023/03/11 06:12:03;;;;;;;5.38;3.50;;;3.10;77.30;;;;;;5015945;28;20132;-50
2023/03/11 06:14:45;;;;;;;12.88;3.90;;;3.10;77.30;;;;;;5012899;28;20045;-49
2023/03/11 06:17:14;;;;;;;6.07;3.70;;;3.10;77.30;;;;;;5017097;28;20069;-48
2023/03/11 06:19:43;;;;;;;5.45;2.97;;;3.10;77.40;;;;;;5011808;28;20045;-52
2023/03/11 06:22:13;;;;;;;8.00;3.58;;;3.10;77.50;;;;;;4992371;28;20054;-50
2023/03/11 06:24:43;;;;;;;8.40;4.07;;;3.00;77.40;;;;;;5004991;28;20041;-48
2023/03/11 06:27:13;;;;;;;13.32;5.90;;;3.10;77.50;;;;;;5015850;28;20457;-52
2023/03/11 06:29:40;;;;;;;8.65;4.07;;;3.20;77.60;;;;;;4997450;28;20061;-49
2023/03/11 06:32:11;;;;;;;11.27;4.15;;;3.10;77.70;;;;;;5021668;28;20054;-51
2023/03/11 06:34:41;;;;;;;7.57;4.05;;;3.10;77.60;;;;;;5014965;28;20066;-51
2023/03/11 06:37:10;;;;;;;10.57;4.63;;;3.10;77.60;;;;;;4998238;28;20053;-51
2023/03/11 06:39:40;;;;;;;7.47;3.83;;;3.10;77.60;;;;;;5032256;28;20067;-49
2023/03/11 06:42:13;;;;;;;5.63;4.10;;;3.10;77.60;;;;;;5016631;28;20091;-48
2023/03/11 06:44:42;;;;;;;8.05;4.60;;;3.10;77.50;;;;;;5004496;28;20041;-51
2023/03/11 06:47:19;;;;;;;7.28;4.50;;;3.10;77.50;;;;;;5017249;28;20137;-50
2023/03/11 06:49:48;;;;;;;9.40;5.00;;;3.00;77.50;;;;;;5003791;28;20048;-52
2023/03/11 06:52:19;;;;;;;7.20;5.15;;;3.00;77.50;;;;;;5015860;28;20034;-51
2023/03/11 06:54:46;;;;;;;8.98;4.93;;;3.10;77.60;;;;;;5000157;28;20033;-48
2023/03/11 06:57:18;;;;;;;11.32;5.78;;;3.10;77.70;;;;;;4999519;28;20049;-49
2023/03/11 06:59:47;;;;;;;11.50;5.10;;;3.10;77.90;;;;;;4998110;28;20037;-46
2023/03/11 07:02:20;;;;;;;9.32;5.07;;;3.00;77.60;;;;;;5009669;28;20037;-46
2023/03/11 07:04:50;;;;;;;10.02;4.90;;;3.10;77.70;;;;;;4987015;28;20042;-45
2023/03/11 07:07:23;;;;;;;9.48;5.47;;;3.10;78.30;;;;;;5011063;28;20650;-49
2023/03/11 07:09:55;;;;;;;8.95;5.43;;;3.10;77.70;;;;;;5007604;28;20046;-45
2023/03/11 07:12:24;;;;;;;13.90;5.53;;;3.10;77.70;;;;;;5026472;28;20041;-47
2023/03/11 07:14:57;;;;;;;9.80;4.47;;;3.10;77.80;;;;;;4993539;28;20045;-46
2023/03/11 07:17:25;;;;;;;8.13;5.00;;;3.10;77.80;;;;;;4995950;28;20048;-50
2023/03/11 07:19:52;;;;;;;7.78;5.18;;;3.20;77.90;;;;;;5018396;28;20072;-45
2023/03/11 07:22:20;;;;;;;9.57;4.70;;;3.10;77.70;;;;;;5002656;28;20061;-48
2023/03/11 07:24:48;;;;;;;9.93;5.78;;;3.20;77.90;;;;;;5006903;28;20493;-46
2023/03/11 07:27:15;;;;;;;14.13;4.93;;;3.20;77.90;;;;;;5017320;28;20038;-48
2023/03/11 07:29:45;;;;;;;9.52;4.68;;;3.20;77.90;;;;;;5012299;28;20088;-48
2023/03/11 07:32:12;;;;;;;8.18;5.10;;;3.20;77.90;;;;;;4995685;28;20050;-46
2023/03/11 07:34:40;;;;;;;14.00;6.18;;;3.20;77.90;;;;;;5000752;28;20045;-46
2023/03/11 07:37:09;;;;;;;8.90;4.88;;;3.20;77.90;;;;;;5005118;28;20034;-45
2023/03/11 07:39:36;;;;;;;11.27;4.50;;;3.30;78.00;;;;;;5013986;28;20045;-47
2023/03/11 07:42:04;;;;;;;11.00;4.95;;;3.30;78.00;;;;;;5008032;28;20046;-45
2023/03/11 07:44:35;;;;;;;12.13;4.95;;;3.30;78.00;;;;;;4991996;28;20046;-46
2023/03/11 07:47:03;;;;;;;8.88;5.53;;;3.30;78.60;;;;;;5009353;28;20124;-47
2023/03/11 07:49:31;;;;;;;10.32;6.28;;;3.40;78.00;;;;;;4989456;28;20041;-49
2023/03/11 07:52:00;;;;;;;11.90;4.72;;;3.40;78.00;;;;;;5004643;28;20048;-47
2023/03/11 07:54:26;;;;;;;9.93;4.60;;;3.40;78.00;;;;;;5006372;28;20046;-46
2023/03/11 07:56:53;;;;;;;10.73;5.25;;;3.40;78.00;;;;;;5006380;28;20410;-45
2023/03/11 07:59:19;;;;;;;9.65;4.85;;;3.50;78.00;;;;;;5005409;28;20050;-48
2023/03/11 08:01:46;;;;;;;8.10;3.90;;;3.50;78.00;;;;;;5006816;28;20049;-48
2023/03/11 08:04:15;;;;;;;7.70;4.72;;;3.60;78.00;;;;;;5013630;28;20046;-45
2023/03/11 08:06:44;;;;;;;7.57;4.50;;;3.60;77.90;;;;;;5009618;28;20038;-45
2023/03/11 08:09:13;;;;;;;9.30;4.38;;;3.60;77.80;;;;;;5008835;28;20044;-47
2023/03/11 08:11:40;;;;;;;9.82;4.13;;;3.70;77.80;;;;;;5012943;28;20479;-45
2023/03/11 08:14:07;;;;;;;5.97;3.70;;;3.70;77.90;;;;;;5030469;28;20041;-45
2023/03/11 08:16:39;;;;;;;7.65;3.97;;;3.70;78.00;;;;;;5018983;28;20038;-49
2023/03/11 08:19:11;;;;;;;6.68;4.22;;;3.80;77.90;;;;;;5006780;28;20046;-46
2023/03/11 08:21:40;;;;;;;8.60;3.97;;;3.80;78.00;;;;;;5007177;28;20042;-45
2023/03/11 08:24:11;;;;;;;8.18;3.90;;;3.90;78.10;;;;;;5013879;28;20073;-50
2023/03/11 08:26:38;;;;;;;10.25;4.40;;;4.00;78.20;;;;;;5028356;28;20044;-50
2023/03/11 08:29:07;;;;;;;9.30;4.25;;;4.00;78.10;;;;;;5020412;28;20046;-48
2023/03/11 08:31:34;;;;;;;5.65;3.47;;;4.10;77.80;;;;;;5011631;28;20052;-46
2023/03/11 08:34:04;;;;;;;8.75;4.65;;;4.10;77.60;;;;;;5008056;28;20505;-49
2023/03/11 08:36:33;;;;;;;7.25;4.05;;;4.10;77.20;;;;;;5010811;28;20050;-48
2023/03/11 08:39:00;;;;;;;5.95;3.83;;;4.20;76.90;;;;;;5014848;28;20045;-45
2023/03/11 08:41:27;;;;;;;8.45;3.47;;;4.20;76.80;;;;;;5022039;28;20128;-46
2023/03/11 08:43:54;;;;;;;8.75;3.38;;;4.20;76.80;;;;;;5025571;28;20038;-46
2023/03/11 08:46:27;;;;;;;4.70;3.22;;;4.20;76.80;;;;;;5015801;28;20096;-46
2023/03/11 08:48:55;;;;;;;6.53;3.17;;;4.30;76.60;;;;;;5008575;28;20073;-47
2023/03/11 08:51:25;;;;;;;12.63;3.90;;;4.30;76.70;;;;;;5011139;28;20042;-49
2023/03/11 08:53:52;;;;;;;6.55;3.17;;;4.30;76.80;;;;;;5006615;28;20049;-47
2023/03/11 08:56:19;;;;;;;6.82;3.75;;;4.30;76.70;;;;;;5026100;28;20092;-47
2023/03/11 08:58:46;;;;;;;6.82;3.53;;;4.30;76.50;;;;;;5029763;28;20038;-50
2023/03/11 09:01:13;;;;;;;4.70;2.90;;;4.30;76.50;;;;;;4989729;28;20055;-47
2023/03/11 09:03:41;;;;;;;6.32;3.38;;;4.30;76.40;;;;;;5021897;28;20034;-46
2023/03/11 09:06:14;;;;;;;3.65;2.85;;;4.40;76.50;;;;;;5028895;28;20045;-48
2023/03/11 09:08:42;;;;;;;8.00;4.30;;;4.40;76.30;;;;;;5006528;28;20038;-49
2023/03/11 09:11:12;;;;;;;6.45;2.70;;;4.40;76.40;;;;;;5014990;28;20077;-46
2023/03/11 09:13:40;;;;;;;5.90;2.15;;;4.50;76.40;;;;;;5028090;28;20052;-47
2023/03/11 09:16:12;;;;;;;4.30;2.95;;;4.50;76.00;;;;;;5016575;28;20069;-49
2023/03/11 09:18:38;;;;;;;4.93;2.38;;;4.50;75.50;;;;;;5009514;28;20088;-48
2023/03/11 09:21:05;;;;;;;3.50;1.92;;;4.50;75.50;;;;;;5006354;28;20042;-47
2023/03/11 09:23:32;;;;;;;3.50;1.80;;;4.60;75.40;;;;;;5007356;28;20157;-46
2023/03/11 09:25:58;;;;;;;4.38;2.55;;;4.60;75.20;;;;;;5023309;28;20056;-46
2023/03/11 09:28:25;;;;;;;2.40;2.20;;;4.60;75.10;;;;;;5021968;28;20395;-47
2023/03/11 09:30:52;;;;;;;7.18;2.35;;;4.70;75.20;;;;;;5004331;28;20042;-46
2023/03/11 09:33:18;;;;;;;5.57;1.90;;;4.70;75.10;;;;;;5017018;28;20578;-46
2023/03/11 09:35:45;;;;;;;3.35;1.77;;;4.80;74.90;;;;;;5026742;28;20167;-50
2023/03/11 09:38:11;;;;;;;2.05;1.38;;;4.80;74.80;;;;;;5018812;28;20074;-48
2023/03/11 09:40:49;;;;;;;6.72;1.98;;;4.90;74.50;;;;;;5008903;28;20053;-47
2023/03/11 09:43:33;;;;;;;4.85;1.27;;;4.90;73.70;;;;;;5024728;28;20449;-49
2023/03/11 09:46:39;;;;;;;3.72;1.23;;;5.00;73.50;;;;;;5004846;28;20046;-46
2023/03/11 09:49:19;;;;;;;4.05;1.65;;;5.00;72.60;;;;;;5010756;28;20603;-46
2023/03/11 09:51:56;;;;;;;8.85;1.80;;;5.10;73.30;;;;;;5011357;28;20056;-47
2023/03/11 09:54:27;;;;;;;3.38;1.23;;;5.10;73.00;;;;;;5020960;28;20129;-47
2023/03/11 09:56:55;;;;;;;4.65;1.58;;;5.20;72.90;;;;;;5012605;28;20421;-47
2023/03/11 09:59:29;;;;;;;3.88;1.42;;;5.20;72.70;;;;;;5012586;28;20101;-50
2023/03/11 10:01:57;;;;;;;2.70;1.17;;;5.30;72.10;;;;;;5005153;28;20034;-46
2023/03/11 10:04:37;;;;;;;2.40;1.00;;;5.30;72.50;;;;;;5025213;28;20067;-47
2023/03/11 10:07:14;;;;;;;5.35;1.38;;;5.40;72.20;;;;;;5018223;28;20405;-46
2023/03/11 10:09:55;;;;;;;3.45;1.23;;;5.40;72.40;;;;;;5010435;28;20052;-49
2023/03/11 10:12:48;;;;;;;2.22;0.80;;;5.50;71.90;;;;;;5020991;28;20049;-49
2023/03/11 10:15:33;;;;;;;1.80;0.52;;;5.70;72.50;;;;;;5027275;28;20049;-48
2023/03/11 10:18:20;;;;;;;5.38;0.80;;;5.80;71.70;;;;;;4998366;28;20158;-46
2023/03/11 10:20:59;;;;;;;6.40;1.30;;;5.90;69.50;;;;;;5017458;28;20045;-46
2023/03/11 10:23:56;;;;;;;3.30;0.90;;;6.00;70.60;;;;;;5022793;28;20120;-47
2023/03/11 10:26:30;;;;;;;5.07;0.82;;;6.10;70.80;;;;;;5029610;28;20047;-48
2023/03/11 10:29:25;;;;;;;2.78;1.13;;;6.20;71.30;;;;;;5024424;28;20507;-48
2023/03/11 10:32:08;;;;;;;1.73;0.55;;;6.40;69.90;;;;;;4986360;28;20141;-47
2023/03/11 10:34:50;;;;;;;3.25;0.70;;;6.60;70.10;;;;;;5009455;28;20052;-46
2023/03/11 10:37:18;;;;;;;2.65;0.60;;;6.70;69.90;;;;;;5032876;28;20494;-46
2023/03/11 10:39:47;;;;;;;1.92;0.40;;;6.90;70.00;;;;;;5015088;28;20070;-46
2023/03/11 10:42:18;;;;;;;2.92;0.60;;;7.00;68.50;;;;;;5024894;28;20050;-47
2023/03/11 10:44:45;;;;;;;3.33;0.90;;;7.10;68.20;;;;;;5031920;28;20426;-47
2023/03/11 10:47:24;;;;;;;1.88;0.60;;;7.20;68.20;;;;;;5015144;28;20157;-47
2023/03/11 10:49:51;;;;;;;4.07;0.80;;;7.30;67.40;;;;;;5018015;28;20037;-46
2023/03/11 10:52:19;;;;;;;2.95;1.35;;;7.40;68.40;;;;;;5008502;28;20076;-46
2023/03/11 10:54:57;;;;;;;4.50;1.00;;;7.60;68.20;;;;;;5028216;28;20060;-50
2023/03/11 10:57:25;;;;;;;3.28;0.88;;;7.70;67.80;;;;;;5013643;28;20049;-46
2023/03/11 10:59:59;;;;;;;1.42;0.65;;;7.80;67.20;;;;;;5008373;28;20038;-50
2023/03/11 11:02:32;;;;;;;4.82;1.00;;;7.90;67.00;;;;;;5021016;28;20224;-46
2023/03/11 11:05:16;;;;;;;2.53;0.82;;;8.00;67.00;;;;;;5012861;28;20113;-47
2023/03/11 11:07:48;;;;;;;3.30;0.75;;;8.10;66.50;;;;;;5031427;28;20065;-46
2023/03/11 11:10:23;;;;;;;2.58;1.02;;;8.20;65.50;;;;;;5013288;28;20406;-46
2023/03/11 11:13:01;;;;;;;;;;;8.20;65.30;;;;;;5023644;28;20048;-50
2023/03/11 11:15:33;;;;;;;2.40;0.55;;;8.30;65.80;;;;;;5031942;28;19921;-46
2023/03/11 11:18:15;;;;;;;;;;;8.30;64.80;;;;;;5017009;28;20053;-46
2023/03/11 11:21:00;;;;;;;2.28;0.90;;;8.40;64.60;;;;;;5010730;28;19928;-50
2023/03/11 11:23:51;;;;;;;5.30;1.20;;;8.40;65.10;;;;;;5025457;28;20154;-50
2023/03/11 11:26:24;;;;;;;1.17;0.95;;;8.40;64.40;;;;;;5012131;28;20542;-46
2023/03/11 11:29:09;;;;;;;2.47;0.70;;;8.40;65.40;;;;;;4999080;28;20049;-46
2023/03/11 11:31:38;;;;;;;2.03;0.82;;;8.40;62.80;;;;;;5010086;28;20042;-47
2023/03/11 11:34:23;;;;;;;2.80;0.95;;;8.40;64.40;;;;;;5014505;28;20049;-50
2023/03/11 11:36:50;;;;;;;1.20;0.52;;;8.40;62.30;;;;;;5010564;28;20538;-46
2023/03/11 11:39:19;;;;;;;3.20;0.90;;;8.40;64.50;;;;;;5004585;28;20498;-48
2023/03/11 11:41:47;;;;;;;1.40;0.90;;;8.40;63.80;;;;;;5011460;28;20046;-49
2023/03/11 11:44:19;;;;;;;2.97;1.13;;;8.50;63.40;;;;;;5009389;28;20042;-46
2023/03/11 11:46:52;;;;;;;3.00;1.08;;;8.50;63.10;;;;;;5012410;28;20048;-46
2023/03/11 11:49:27;;;;;;;2.95;0.80;;;8.60;61.40;;;;;;4998870;28;20155;-47
2023/03/11 11:52:10;;;;;;;1.88;0.75;;;8.70;62.30;;;;;;5007747;28;20044;-46
2023/03/11 11:54:56;;;;;;;2.08;0.80;;;8.70;63.00;;;;;;5021080;28;20051;-46
2023/03/11 11:57:23;;;;;;;4.07;1.00;;;8.80;62.10;;;;;;5022067;28;20065;-50
2023/03/11 11:59:50;;;;;;;2.53;0.90;;;8.90;62.60;;;;;;5012522;28;20231;-48
2023/03/11 12:02:45;;;;;;;3.70;1.05;;;8.90;62.70;;;;;;5015028;28;20041;-47
2023/03/11 12:05:26;;;;;;;2.17;0.85;;;9.00;61.90;;;;;;5022995;28;20049;-47
2023/03/11 12:08:02;;;;;;;2.00;0.93;;;9.10;62.30;;;;;;5012242;28;20050;-47
2023/03/11 12:10:28;;;;;;;4.80;0.85;;;9.20;62.00;;;;;;5015585;28;20052;-48
2023/03/11 12:13:27;;;;;;;5.38;1.35;;;9.30;62.70;;;;;;4999060;28;20610;-45
2023/03/11 12:16:15;;;;;;;2.67;1.27;;;9.30;60.60;;;;;;5016284;28;20050;-45
2023/03/11 12:19:03;;;;;;;4.30;1.30;;;9.40;61.70;;;;;;5018997;28;20493;-47
2023/03/11 12:22:09;;;;;;;2.63;0.70;;;9.40;59.60;;;;;;5008984;28;20046;-46
2023/03/11 12:24:44;;;;;;;0.95;0.80;;;9.50;59.80;;;;;;5018080;28;20045;-46
2023/03/11 12:27:24;;;;;;;0.98;0.73;;;9.60;60.30;;;;;;5014375;28;20045;-46
2023/03/11 12:29:55;;;;;;;2.33;0.93;;;9.60;59.10;;;;;;5028808;28;20472;-46
2023/03/11 12:32:54;;;;;;;2.05;0.90;;;9.70;60.60;;;;;;5011136;28;20055;-45
2023/03/11 12:35:33;;;;;;;0.93;0.85;;;9.70;60.80;;;;;;5014786;28;20115;-47
2023/03/11 12:38:12;;;;;;;3.28;0.75;;;9.80;61.70;;;;;;5017804;28;20053;-46
2023/03/11 12:40:49;;;;;;;1.80;1.20;;;9.90;60.10;;;;;;4999075;28;20057;-46
2023/03/11 12:43:33;;;;;;;1.80;0.85;;;10.00;58.80;;;;;;5006734;28;20037;-46
2023/03/11 12:46:03;;;;;;;1.48;0.85;;;10.10;58.00;;;;;;5012911;28;20049;-47
2023/03/11 12:48:44;;;;;;;2.25;1.10;;;10.20;59.70;;;;;;5010420;28;20034;-46
2023/03/11 12:51:26;;;;;;;1.80;1.02;;;10.30;58.90;;;;;;5003220;28;20510;-49
2023/03/11 12:53:55;;;;;;;3.10;0.98;;;10.40;57.90;;;;;;5004951;28;20494;-46
2023/03/11 12:56:48;;;;;;;1.40;0.77;;;10.40;59.00;;;;;;4992732;28;20502;-46
2023/03/11 12:59:31;;;;;;;;;;;10.40;57.80;;;;;;5009193;28;20038;-47
2023/03/11 13:02:19;;;;;;;;;;;10.50;59.10;;;;;;5009654;28;19929;-46
2023/03/11 13:05:09;;;;;;;2.78;0.95;;;10.60;59.90;;;;;;5005608;28;20298;-50
2023/03/11 13:07:53;;;;;;;0.95;0.82;;;10.50;58.10;;;;;;5006142;28;20038;-50
2023/03/11 13:10:38;;;;;;;3.35;1.13;;;10.50;57.30;;;;;;5011795;28;20053;-48
2023/03/11 13:13:36;;;;;;;3.72;1.00;;;10.40;54.50;;;;;;5004486;28;20096;-48
2023/03/11 13:16:15;;;;;;;2.90;1.10;;;10.30;55.30;;;;;;5009043;28;20042;-47
2023/03/11 13:18:47;;;;;;;2.13;1.00;;;10.20;56.30;;;;;;5008116;28;20084;-45
2023/03/11 13:21:25;;;;;;;1.58;1.00;;;10.10;57.00;;;;;;5004174;28;20046;-50
2023/03/11 13:24:18;;;;;;;2.15;1.17;;;10.00;55.30;;;;;;5008338;28;20046;-49
2023/03/11 13:26:49;;;;;;;;;;;10.00;55.00;;;;;;4994032;28;20541;-48